Terminal Aerodrome Forecast
Issued by NWS St Louis, MO

Home | Current Version | Previous Version | Text Only | Print | Product List | Glossary On
Versions: 1 2 3 4 5 6 7 8 9 10 11 12 13 14 15 16 17 18 19 20 21 22 23 24 25 26 27
000
FTUS43 KLSX 251900 AAA
TAFSTL
TAF AMD
KSTL 251936Z 2520/2624 11008KT P6SM BKN250
     FM260300 08008KT P6SM SCT050 BKN120
     FM261000 04010KT 1SM -SN OVC008
     FM261300 36012G20KT 2SM -SN OVC012
     FM261800 34012G20KT 6SM -SHSN OVC015=

USA.gov is the U.S. government's official web portal to all federal, state and local government web resources and services.